sensor_id;sensor_type;location;lat;lon;timestamp;P1;durP1;ratioP1;P2;durP2;ratioP2
5127;SDS011;2582;48.770;9.190;2022-10-22T00:01:42;2.10;;;0.70;;
5127;SDS011;2582;48.770;9.190;2022-10-22T00:04:07;2.20;;;0.70;;
5127;SDS011;2582;48.770;9.190;2022-10-22T00:06:33;2.80;;;0.70;;
5127;SDS011;2582;48.770;9.190;2022-10-22T00:08:58;3.03;;;0.90;;
5127;SDS011;2582;48.770;9.190;2022-10-22T00:11:25;2.67;;;0.73;;
5127;SDS011;2582;48.770;9.190;2022-10-22T00:13:51;1.47;;;0.80;;
5127;SDS011;2582;48.770;9.190;2022-10-22T00:16:17;2.50;;;1.07;;
5127;SDS011;2582;48.770;9.190;2022-10-22T00:18:42;1.57;;;0.87;;
5127;SDS011;2582;48.770;9.190;2022-10-22T00:21:08;1.27;;;0.60;;
5127;SDS011;2582;48.770;9.190;2022-10-22T00:23:33;2.37;;;0.90;;
5127;SDS011;2582;48.770;9.190;2022-10-22T00:25:59;1.20;;;0.57;;
5127;SDS011;2582;48.770;9.190;2022-10-22T00:28:25;0.90;;;0.60;;
5127;SDS011;2582;48.770;9.190;2022-10-22T00:30:54;1.67;;;0.70;;
5127;SDS011;2582;48.770;9.190;2022-10-22T00:33:24;0.80;;;0.57;;
5127;SDS011;2582;48.770;9.190;2022-10-22T00:35:50;1.37;;;0.70;;
5127;SDS011;2582;48.770;9.190;2022-10-22T00:38:16;0.97;;;0.70;;
5127;SDS011;2582;48.770;9.190;2022-10-22T00:40:41;0.80;;;0.60;;
5127;SDS011;2582;48.770;9.190;2022-10-22T00:43:09;1.37;;;0.60;;
5127;SDS011;2582;48.770;9.190;2022-10-22T00:45:40;0.90;;;0.60;;
5127;SDS011;2582;48.770;9.190;2022-10-22T00:48:09;1.20;;;0.87;;
5127;SDS011;2582;48.770;9.190;2022-10-22T00:50:45;2.23;;;0.80;;
5127;SDS011;2582;48.770;9.190;2022-10-22T00:53:24;1.33;;;0.80;;
5127;SDS011;2582;48.770;9.190;2022-10-22T00:55:54;1.90;;;0.60;;
5127;SDS011;2582;48.770;9.190;2022-10-22T00:58:21;3.73;;;0.97;;
5127;SDS011;2582;48.770;9.190;2022-10-22T01:00:50;2.33;;;0.70;;
5127;SDS011;2582;48.770;9.190;2022-10-22T01:03:15;1.00;;;0.77;;
5127;SDS011;2582;48.770;9.190;2022-10-22T01:05:45;2.57;;;0.80;;
5127;SDS011;2582;48.770;9.190;2022-10-22T01:08:21;0.83;;;0.70;;
5127;SDS011;2582;48.770;9.190;2022-10-22T01:11:02;1.80;;;0.70;;
5127;SDS011;2582;48.770;9.190;2022-10-22T01:19:29;2.40;;;0.90;;
5127;SDS011;2582;48.770;9.190;2022-10-22T01:22:04;2.43;;;0.80;;
5127;SDS011;2582;48.770;9.190;2022-10-22T01:24:59;1.20;;;0.87;;
5127;SDS011;2582;48.770;9.190;2022-10-22T01:30:14;2.23;;;0.80;;
5127;SDS011;2582;48.770;9.190;2022-10-22T01:32:46;2.20;;;0.70;;
5127;SDS011;2582;48.770;9.190;2022-10-22T01:35:16;1.33;;;0.80;;
5127;SDS011;2582;48.770;9.190;2022-10-22T01:37:51;1.23;;;0.60;;
5127;SDS011;2582;48.770;9.190;2022-10-22T01:40:20;2.77;;;0.90;;
5127;SDS011;2582;48.770;9.190;2022-10-22T01:43:21;2.03;;;1.00;;
5127;SDS011;2582;48.770;9.190;2022-10-22T01:45:50;2.13;;;0.80;;
5127;SDS011;2582;48.770;9.190;2022-10-22T02:01:45;1.47;;;0.70;;
5127;SDS011;2582;48.770;9.190;2022-10-22T02:04:29;0.70;;;0.60;;
5127;SDS011;2582;48.770;9.190;2022-10-22T02:07:11;1.93;;;0.97;;
5127;SDS011;2582;48.770;9.190;2022-10-22T02:09:39;2.30;;;0.60;;
5127;SDS011;2582;48.770;9.190;2022-10-22T02:12:07;1.40;;;0.90;;
5127;SDS011;2582;48.770;9.190;2022-10-22T02:14:35;0.80;;;0.70;;
5127;SDS011;2582;48.770;9.190;2022-10-22T02:17:03;1.77;;;0.70;;
5127;SDS011;2582;48.770;9.190;2022-10-22T02:22:03;1.70;;;0.83;;
5127;SDS011;2582;48.770;9.190;2022-10-22T02:24:29;1.63;;;0.80;;
5127;SDS011;2582;48.770;9.190;2022-10-22T02:27:05;1.10;;;0.73;;
5127;SDS011;2582;48.770;9.190;2022-10-22T02:29:39;1.57;;;0.60;;
5127;SDS011;2582;48.770;9.190;2022-10-22T02:32:20;1.63;;;0.80;;
5127;SDS011;2582;48.770;9.190;2022-10-22T02:34:50;3.17;;;0.70;;
5127;SDS011;2582;48.770;9.190;2022-10-22T02:37:18;2.17;;;0.80;;
5127;SDS011;2582;48.770;9.190;2022-10-22T02:39:44;3.70;;;0.77;;
5127;SDS011;2582;48.770;9.190;2022-10-22T02:42:11;1.53;;;0.80;;
5127;SDS011;2582;48.770;9.190;2022-10-22T02:44:37;1.97;;;0.70;;
5127;SDS011;2582;48.770;9.190;2022-10-22T02:47:02;1.53;;;0.67;;
5127;SDS011;2582;48.770;9.190;2022-10-22T02:49:28;2.00;;;0.93;;
5127;SDS011;2582;48.770;9.190;2022-10-22T02:51:54;2.70;;;1.20;;
5127;SDS011;2582;48.770;9.190;2022-10-22T02:54:19;1.47;;;0.80;;
5127;SDS011;2582;48.770;9.190;2022-10-22T02:56:45;1.93;;;0.77;;
5127;SDS011;2582;48.770;9.190;2022-10-22T02:59:10;1.10;;;0.70;;
5127;SDS011;2582;48.770;9.190;2022-10-22T03:01:36;1.00;;;0.60;;
5127;SDS011;2582;48.770;9.190;2022-10-22T03:04:02;1.33;;;0.70;;
5127;SDS011;2582;48.770;9.190;2022-10-22T03:06:28;1.20;;;0.70;;
5127;SDS011;2582;48.770;9.190;2022-10-22T03:08:54;1.40;;;0.80;;
5127;SDS011;2582;48.770;9.190;2022-10-22T03:11:19;2.20;;;0.60;;
5127;SDS011;2582;48.770;9.190;2022-10-22T03:13:45;1.83;;;0.70;;
5127;SDS011;2582;48.770;9.190;2022-10-22T03:16:10;3.23;;;1.00;;
5127;SDS011;2582;48.770;9.190;2022-10-22T03:18:36;1.00;;;0.70;;
5127;SDS011;2582;48.770;9.190;2022-10-22T03:21:20;1.10;;;0.60;;
5127;SDS011;2582;48.770;9.190;2022-10-22T03:23:52;0.90;;;0.77;;
5127;SDS011;2582;48.770;9.190;2022-10-22T03:26:18;2.07;;;0.80;;
5127;SDS011;2582;48.770;9.190;2022-10-22T03:28:44;2.37;;;1.30;;
5127;SDS011;2582;48.770;9.190;2022-10-22T03:31:11;1.90;;;0.97;;
5127;SDS011;2582;48.770;9.190;2022-10-22T03:33:37;1.67;;;0.70;;
5127;SDS011;2582;48.770;9.190;2022-10-22T03:36:03;1.07;;;0.60;;
5127;SDS011;2582;48.770;9.190;2022-10-22T03:38:29;1.30;;;0.90;;
5127;SDS011;2582;48.770;9.190;2022-10-22T03:40:55;1.10;;;0.80;;
5127;SDS011;2582;48.770;9.190;2022-10-22T03:43:21;0.80;;;0.70;;
5127;SDS011;2582;48.770;9.190;2022-10-22T03:45:47;1.53;;;0.70;;
5127;SDS011;2582;48.770;9.190;2022-10-22T03:48:12;1.20;;;0.80;;
5127;SDS011;2582;48.770;9.190;2022-10-22T03:50:38;1.53;;;1.00;;
5127;SDS011;2582;48.770;9.190;2022-10-22T03:53:03;3.07;;;0.70;;
5127;SDS011;2582;48.770;9.190;2022-10-22T03:55:31;2.50;;;0.80;;
5127;SDS011;2582;48.770;9.190;2022-10-22T03:57:56;1.77;;;1.10;;
5127;SDS011;2582;48.770;9.190;2022-10-22T04:00:22;2.60;;;0.70;;
5127;SDS011;2582;48.770;9.190;2022-10-22T04:02:47;1.03;;;0.80;;
5127;SDS011;2582;48.770;9.190;2022-10-22T04:05:13;1.00;;;0.73;;
5127;SDS011;2582;48.770;9.190;2022-10-22T04:07:38;1.63;;;0.77;;
5127;SDS011;2582;48.770;9.190;2022-10-22T04:10:04;1.57;;;0.70;;
5127;SDS011;2582;48.770;9.190;2022-10-22T04:12:30;1.30;;;0.80;;
5127;SDS011;2582;48.770;9.190;2022-10-22T04:14:55;2.70;;;0.80;;
5127;SDS011;2582;48.770;9.190;2022-10-22T04:17:21;1.20;;;0.80;;
5127;SDS011;2582;48.770;9.190;2022-10-22T04:19:47;7.27;;;1.00;;
5127;SDS011;2582;48.770;9.190;2022-10-22T04:22:12;1.43;;;0.90;;
5127;SDS011;2582;48.770;9.190;2022-10-22T04:24:38;2.80;;;2.07;;
5127;SDS011;2582;48.770;9.190;2022-10-22T04:27:03;1.43;;;1.00;;
5127;SDS011;2582;48.770;9.190;2022-10-22T04:29:29;2.03;;;0.97;;
5127;SDS011;2582;48.770;9.190;2022-10-22T04:31:54;3.27;;;0.90;;
5127;SDS011;2582;48.770;9.190;2022-10-22T04:34:20;2.07;;;1.03;;
5127;SDS011;2582;48.770;9.190;2022-10-22T04:36:45;3.50;;;0.73;;
5127;SDS011;2582;48.770;9.190;2022-10-22T04:39:11;3.00;;;0.90;;
5127;SDS011;2582;48.770;9.190;2022-10-22T04:41:37;1.63;;;0.70;;
5127;SDS011;2582;48.770;9.190;2022-10-22T04:44:04;3.17;;;0.90;;
5127;SDS011;2582;48.770;9.190;2022-10-22T04:46:31;1.30;;;0.80;;
5127;SDS011;2582;48.770;9.190;2022-10-22T04:48:58;2.07;;;1.20;;
5127;SDS011;2582;48.770;9.190;2022-10-22T04:51:24;1.93;;;0.73;;
5127;SDS011;2582;48.770;9.190;2022-10-22T04:53:51;2.60;;;0.70;;
5127;SDS011;2582;48.770;9.190;2022-10-22T04:56:18;0.90;;;0.70;;
5127;SDS011;2582;48.770;9.190;2022-10-22T04:58:45;1.23;;;0.73;;
5127;SDS011;2582;48.770;9.190;2022-10-22T05:01:17;2.70;;;1.00;;
5127;SDS011;2582;48.770;9.190;2022-10-22T05:03:44;1.10;;;0.63;;
5127;SDS011;2582;48.770;9.190;2022-10-22T05:06:11;1.00;;;0.70;;
5127;SDS011;2582;48.770;9.190;2022-10-22T05:08:37;1.37;;;0.70;;
5127;SDS011;2582;48.770;9.190;2022-10-22T05:11:16;2.27;;;0.80;;
5127;SDS011;2582;48.770;9.190;2022-10-22T05:13:43;1.40;;;0.70;;
5127;SDS011;2582;48.770;9.190;2022-10-22T05:16:09;2.60;;;0.80;;
5127;SDS011;2582;48.770;9.190;2022-10-22T05:18:35;1.30;;;0.80;;
5127;SDS011;2582;48.770;9.190;2022-10-22T05:21:02;3.87;;;1.17;;
5127;SDS011;2582;48.770;9.190;2022-10-22T05:23:29;2.03;;;0.80;;
5127;SDS011;2582;48.770;9.190;2022-10-22T05:25:55;1.13;;;0.77;;
5127;SDS011;2582;48.770;9.190;2022-10-22T05:28:20;1.03;;;0.80;;
5127;SDS011;2582;48.770;9.190;2022-10-22T05:30:55;2.10;;;0.97;;
5127;SDS011;2582;48.770;9.190;2022-10-22T05:33:22;0.90;;;0.80;;
5127;SDS011;2582;48.770;9.190;2022-10-22T05:35:48;1.00;;;0.70;;
5127;SDS011;2582;48.770;9.190;2022-10-22T05:38:14;0.80;;;0.60;;
5127;SDS011;2582;48.770;9.190;2022-10-22T05:40:40;2.00;;;1.00;;
5127;SDS011;2582;48.770;9.190;2022-10-22T05:43:06;0.90;;;0.60;;
5127;SDS011;2582;48.770;9.190;2022-10-22T05:45:34;1.57;;;1.10;;
5127;SDS011;2582;48.770;9.190;2022-10-22T05:48:04;1.00;;;0.70;;
5127;SDS011;2582;48.770;9.190;2022-10-22T05:50:30;0.80;;;0.67;;
5127;SDS011;2582;48.770;9.190;2022-10-22T05:52:56;1.90;;;0.80;;
5127;SDS011;2582;48.770;9.190;2022-10-22T05:55:21;1.63;;;0.90;;
5127;SDS011;2582;48.770;9.190;2022-10-22T05:57:47;2.33;;;1.03;;
5127;SDS011;2582;48.770;9.190;2022-10-22T06:00:14;1.00;;;0.70;;
5127;SDS011;2582;48.770;9.190;2022-10-22T06:02:40;1.63;;;0.90;;
5127;SDS011;2582;48.770;9.190;2022-10-22T06:05:06;1.60;;;0.77;;
5127;SDS011;2582;48.770;9.190;2022-10-22T06:07:32;1.03;;;0.80;;
5127;SDS011;2582;48.770;9.190;2022-10-22T06:09:58;1.10;;;0.90;;
5127;SDS011;2582;48.770;9.190;2022-10-22T06:12:24;1.97;;;0.70;;
5127;SDS011;2582;48.770;9.190;2022-10-22T06:14:50;1.80;;;0.70;;
5127;SDS011;2582;48.770;9.190;2022-10-22T06:17:15;1.30;;;0.70;;
5127;SDS011;2582;48.770;9.190;2022-10-22T06:19:43;1.27;;;0.77;;
5127;SDS011;2582;48.770;9.190;2022-10-22T06:22:09;1.33;;;0.70;;
5127;SDS011;2582;48.770;9.190;2022-10-22T06:24:34;2.30;;;0.83;;
5127;SDS011;2582;48.770;9.190;2022-10-22T06:27:00;1.67;;;0.60;;
5127;SDS011;2582;48.770;9.190;2022-10-22T06:29:25;2.33;;;0.83;;
5127;SDS011;2582;48.770;9.190;2022-10-22T06:31:51;3.27;;;0.83;;
5127;SDS011;2582;48.770;9.190;2022-10-22T06:34:16;1.00;;;0.60;;
5127;SDS011;2582;48.770;9.190;2022-10-22T06:36:45;2.30;;;0.70;;
5127;SDS011;2582;48.770;9.190;2022-10-22T06:39:12;2.50;;;1.17;;
5127;SDS011;2582;48.770;9.190;2022-10-22T06:41:39;1.43;;;1.00;;
5127;SDS011;2582;48.770;9.190;2022-10-22T06:44:04;1.80;;;0.83;;
5127;SDS011;2582;48.770;9.190;2022-10-22T06:46:30;2.10;;;1.03;;
5127;SDS011;2582;48.770;9.190;2022-10-22T06:48:57;1.77;;;0.70;;
5127;SDS011;2582;48.770;9.190;2022-10-22T06:51:25;1.03;;;0.93;;
5127;SDS011;2582;48.770;9.190;2022-10-22T06:53:52;1.20;;;0.90;;
5127;SDS011;2582;48.770;9.190;2022-10-22T06:56:19;2.87;;;0.87;;
5127;SDS011;2582;48.770;9.190;2022-10-22T06:58:47;3.20;;;0.80;;
5127;SDS011;2582;48.770;9.190;2022-10-22T07:01:14;1.03;;;0.60;;
5127;SDS011;2582;48.770;9.190;2022-10-22T07:03:40;1.80;;;0.70;;
5127;SDS011;2582;48.770;9.190;2022-10-22T07:06:08;1.37;;;0.77;;
5127;SDS011;2582;48.770;9.190;2022-10-22T07:08:35;0.90;;;0.63;;
5127;SDS011;2582;48.770;9.190;2022-10-22T07:13:47;3.20;;;2.37;;
5127;SDS011;2582;48.770;9.190;2022-10-22T07:16:13;2.83;;;1.20;;
5127;SDS011;2582;48.770;9.190;2022-10-22T07:18:40;1.97;;;0.97;;
5127;SDS011;2582;48.770;9.190;2022-10-22T07:21:06;0.80;;;0.63;;
5127;SDS011;2582;48.770;9.190;2022-10-22T07:23:32;1.70;;;0.80;;
5127;SDS011;2582;48.770;9.190;2022-10-22T07:25:58;1.17;;;0.87;;
5127;SDS011;2582;48.770;9.190;2022-10-22T07:28:26;1.47;;;0.80;;
5127;SDS011;2582;48.770;9.190;2022-10-22T07:30:52;1.83;;;1.03;;
5127;SDS011;2582;48.770;9.190;2022-10-22T07:33:18;2.20;;;1.07;;
5127;SDS011;2582;48.770;9.190;2022-10-22T07:35:44;1.90;;;0.90;;
5127;SDS011;2582;48.770;9.190;2022-10-22T07:38:09;4.47;;;1.80;;
5127;SDS011;2582;48.770;9.190;2022-10-22T07:40:35;4.60;;;1.37;;
5127;SDS011;2582;48.770;9.190;2022-10-22T07:43:01;2.10;;;1.43;;
5127;SDS011;2582;48.770;9.190;2022-10-22T07:45:27;7.13;;;2.10;;
5127;SDS011;2582;48.770;9.190;2022-10-22T07:47:53;6.17;;;2.70;;
5127;SDS011;2582;48.770;9.190;2022-10-22T07:50:18;2.43;;;1.50;;
5127;SDS011;2582;48.770;9.190;2022-10-22T07:52:44;2.63;;;1.40;;
5127;SDS011;2582;48.770;9.190;2022-10-22T07:55:10;2.20;;;1.60;;
5127;SDS011;2582;48.770;9.190;2022-10-22T07:57:37;7.57;;;1.37;;
5127;SDS011;2582;48.770;9.190;2022-10-22T08:00:04;1.97;;;0.90;;
5127;SDS011;2582;48.770;9.190;2022-10-22T08:02:30;4.00;;;1.50;;
5127;SDS011;2582;48.770;9.190;2022-10-22T08:04:56;2.23;;;1.43;;
5127;SDS011;2582;48.770;9.190;2022-10-22T08:07:22;2.30;;;0.90;;
5127;SDS011;2582;48.770;9.190;2022-10-22T08:09:48;1.73;;;0.87;;
5127;SDS011;2582;48.770;9.190;2022-10-22T08:12:13;1.20;;;0.77;;
5127;SDS011;2582;48.770;9.190;2022-10-22T08:14:39;2.80;;;1.30;;
5127;SDS011;2582;48.770;9.190;2022-10-22T08:17:04;1.90;;;1.20;;
5127;SDS011;2582;48.770;9.190;2022-10-22T08:19:30;2.57;;;1.30;;
5127;SDS011;2582;48.770;9.190;2022-10-22T08:21:56;2.70;;;1.33;;
5127;SDS011;2582;48.770;9.190;2022-10-22T08:24:22;1.00;;;0.90;;
5127;SDS011;2582;48.770;9.190;2022-10-22T08:26:48;3.63;;;1.00;;
5127;SDS011;2582;48.770;9.190;2022-10-22T08:29:13;2.07;;;0.90;;
5127;SDS011;2582;48.770;9.190;2022-10-22T08:31:39;2.80;;;0.90;;
5127;SDS011;2582;48.770;9.190;2022-10-22T08:34:05;1.63;;;1.10;;
5127;SDS011;2582;48.770;9.190;2022-10-22T08:36:32;2.40;;;0.90;;
5127;SDS011;2582;48.770;9.190;2022-10-22T08:38:58;1.27;;;1.07;;
5127;SDS011;2582;48.770;9.190;2022-10-22T08:41:23;3.27;;;0.97;;
5127;SDS011;2582;48.770;9.190;2022-10-22T08:44:06;5.97;;;1.67;;
5127;SDS011;2582;48.770;9.190;2022-10-22T08:50:26;2.20;;;0.80;;
5127;SDS011;2582;48.770;9.190;2022-10-22T08:53:15;1.00;;;0.77;;
5127;SDS011;2582;48.770;9.190;2022-10-22T08:55:54;1.77;;;1.20;;
5127;SDS011;2582;48.770;9.190;2022-10-22T09:01:13;3.53;;;1.80;;
5127;SDS011;2582;48.770;9.190;2022-10-22T09:06:21;1.93;;;1.50;;
5127;SDS011;2582;48.770;9.190;2022-10-22T09:08:49;1.30;;;0.93;;
5127;SDS011;2582;48.770;9.190;2022-10-22T09:11:27;1.30;;;0.73;;
5127;SDS011;2582;48.770;9.190;2022-10-22T09:13:56;1.87;;;1.07;;
5127;SDS011;2582;48.770;9.190;2022-10-22T09:24:47;2.87;;;0.90;;
5127;SDS011;2582;48.770;9.190;2022-10-22T09:27:17;1.70;;;0.90;;
5127;SDS011;2582;48.770;9.190;2022-10-22T09:29:47;3.10;;;1.87;;
5127;SDS011;2582;48.770;9.190;2022-10-22T09:32:13;1.50;;;0.90;;
5127;SDS011;2582;48.770;9.190;2022-10-22T09:34:40;1.70;;;0.70;;
5127;SDS011;2582;48.770;9.190;2022-10-22T09:37:09;1.93;;;1.00;;
5127;SDS011;2582;48.770;9.190;2022-10-22T09:39:42;1.67;;;0.90;;
5127;SDS011;2582;48.770;9.190;2022-10-22T09:42:10;3.33;;;1.10;;
5127;SDS011;2582;48.770;9.190;2022-10-22T09:44:39;1.43;;;0.90;;
5127;SDS011;2582;48.770;9.190;2022-10-22T09:47:06;2.77;;;0.70;;
5127;SDS011;2582;48.770;9.190;2022-10-22T09:50:03;1.93;;;0.90;;
5127;SDS011;2582;48.770;9.190;2022-10-22T09:55:42;2.47;;;0.83;;
5127;SDS011;2582;48.770;9.190;2022-10-22T09:58:10;2.20;;;0.80;;
5127;SDS011;2582;48.770;9.190;2022-10-22T10:00:38;1.30;;;0.80;;
5127;SDS011;2582;48.770;9.190;2022-10-22T10:03:05;1.47;;;0.80;;
5127;SDS011;2582;48.770;9.190;2022-10-22T10:05:32;1.50;;;1.10;;
5127;SDS011;2582;48.770;9.190;2022-10-22T10:08:12;1.37;;;0.90;;
5127;SDS011;2582;48.770;9.190;2022-10-22T10:16:19;2.83;;;1.10;;
5127;SDS011;2582;48.770;9.190;2022-10-22T10:26:52;2.50;;;0.90;;
5127;SDS011;2582;48.770;9.190;2022-10-22T10:36:57;1.13;;;0.80;;
5127;SDS011;2582;48.770;9.190;2022-10-22T10:42:48;1.70;;;1.10;;
5127;SDS011;2582;48.770;9.190;2022-10-22T10:45:45;1.67;;;0.90;;
5127;SDS011;2582;48.770;9.190;2022-10-22T10:48:26;2.03;;;0.90;;
5127;SDS011;2582;48.770;9.190;2022-10-22T10:56:38;3.80;;;1.27;;
5127;SDS011;2582;48.770;9.190;2022-10-22T11:02:02;1.93;;;0.93;;
5127;SDS011;2582;48.770;9.190;2022-10-22T11:05:02;3.07;;;1.20;;
5127;SDS011;2582;48.770;9.190;2022-10-22T11:13:37;1.40;;;0.77;;
5127;SDS011;2582;48.770;9.190;2022-10-22T11:19:06;2.30;;;0.90;;
5127;SDS011;2582;48.770;9.190;2022-10-22T11:21:48;3.23;;;1.07;;
5127;SDS011;2582;48.770;9.190;2022-10-22T11:24:20;3.00;;;0.70;;
5127;SDS011;2582;48.770;9.190;2022-10-22T11:27:00;1.97;;;1.20;;
5127;SDS011;2582;48.770;9.190;2022-10-22T11:29:31;1.93;;;0.87;;
5127;SDS011;2582;48.770;9.190;2022-10-22T11:32:03;1.83;;;0.90;;
5127;SDS011;2582;48.770;9.190;2022-10-22T11:34:32;2.83;;;0.93;;
5127;SDS011;2582;48.770;9.190;2022-10-22T11:37:06;1.93;;;1.00;;
5127;SDS011;2582;48.770;9.190;2022-10-22T11:39:51;1.30;;;1.03;;
5127;SDS011;2582;48.770;9.190;2022-10-22T11:42:21;1.63;;;0.90;;
5127;SDS011;2582;48.770;9.190;2022-10-22T11:47:31;2.87;;;1.10;;
5127;SDS011;2582;48.770;9.190;2022-10-22T11:50:02;2.73;;;1.10;;
5127;SDS011;2582;48.770;9.190;2022-10-22T11:52:53;2.23;;;1.13;;
5127;SDS011;2582;48.770;9.190;2022-10-22T11:55:31;2.23;;;1.10;;
5127;SDS011;2582;48.770;9.190;2022-10-22T11:58:00;2.40;;;1.00;;
5127;SDS011;2582;48.770;9.190;2022-10-22T12:00:46;3.70;;;1.93;;
5127;SDS011;2582;48.770;9.190;2022-10-22T12:03:16;2.67;;;1.10;;
5127;SDS011;2582;48.770;9.190;2022-10-22T12:06:00;1.93;;;1.10;;
5127;SDS011;2582;48.770;9.190;2022-10-22T12:08:26;1.50;;;0.90;;
5127;SDS011;2582;48.770;9.190;2022-10-22T12:13:22;1.20;;;0.70;;
5127;SDS011;2582;48.770;9.190;2022-10-22T12:15:53;3.00;;;1.20;;
5127;SDS011;2582;48.770;9.190;2022-10-22T12:18:24;2.50;;;1.07;;
5127;SDS011;2582;48.770;9.190;2022-10-22T12:20:52;2.43;;;1.10;;
5127;SDS011;2582;48.770;9.190;2022-10-22T12:23:18;2.53;;;1.27;;
5127;SDS011;2582;48.770;9.190;2022-10-22T12:25:48;2.10;;;0.93;;
5127;SDS011;2582;48.770;9.190;2022-10-22T12:28:14;3.07;;;1.00;;
5127;SDS011;2582;48.770;9.190;2022-10-22T12:30:40;1.30;;;1.00;;
5127;SDS011;2582;48.770;9.190;2022-10-22T12:33:06;2.60;;;1.37;;
5127;SDS011;2582;48.770;9.190;2022-10-22T12:35:42;2.43;;;0.97;;
5127;SDS011;2582;48.770;9.190;2022-10-22T12:38:13;4.13;;;1.10;;
5127;SDS011;2582;48.770;9.190;2022-10-22T12:40:41;2.93;;;0.90;;
5127;SDS011;2582;48.770;9.190;2022-10-22T12:43:11;2.70;;;1.10;;
5127;SDS011;2582;48.770;9.190;2022-10-22T12:45:47;2.27;;;0.83;;
5127;SDS011;2582;48.770;9.190;2022-10-22T12:50:48;1.80;;;0.90;;
5127;SDS011;2582;48.770;9.190;2022-10-22T12:53:17;2.60;;;0.87;;
5127;SDS011;2582;48.770;9.190;2022-10-22T12:55:50;1.50;;;1.07;;
5127;SDS011;2582;48.770;9.190;2022-10-22T12:58:19;3.73;;;2.50;;
5127;SDS011;2582;48.770;9.190;2022-10-22T13:00:47;3.27;;;0.90;;
5127;SDS011;2582;48.770;9.190;2022-10-22T13:03:26;2.83;;;0.93;;
5127;SDS011;2582;48.770;9.190;2022-10-22T13:06:10;1.57;;;1.10;;
5127;SDS011;2582;48.770;9.190;2022-10-22T13:08:42;2.10;;;0.90;;
5127;SDS011;2582;48.770;9.190;2022-10-22T13:11:08;4.37;;;0.90;;
5127;SDS011;2582;48.770;9.190;2022-10-22T13:18:48;2.43;;;1.07;;
5127;SDS011;2582;48.770;9.190;2022-10-22T13:21:21;1.40;;;0.73;;
5127;SDS011;2582;48.770;9.190;2022-10-22T13:24:02;1.90;;;1.07;;
5127;SDS011;2582;48.770;9.190;2022-10-22T13:26:46;2.53;;;0.83;;
5127;SDS011;2582;48.770;9.190;2022-10-22T13:29:14;1.60;;;0.83;;
5127;SDS011;2582;48.770;9.190;2022-10-22T13:31:47;1.83;;;0.80;;
5127;SDS011;2582;48.770;9.190;2022-10-22T13:34:15;2.60;;;1.07;;
5127;SDS011;2582;48.770;9.190;2022-10-22T13:36:43;2.97;;;1.00;;
5127;SDS011;2582;48.770;9.190;2022-10-22T13:39:18;3.07;;;1.00;;
5127;SDS011;2582;48.770;9.190;2022-10-22T13:41:48;2.87;;;1.00;;
5127;SDS011;2582;48.770;9.190;2022-10-22T13:44:15;2.00;;;0.87;;
5127;SDS011;2582;48.770;9.190;2022-10-22T13:46:41;3.17;;;1.00;;
5127;SDS011;2582;48.770;9.190;2022-10-22T13:49:14;2.40;;;0.90;;
5127;SDS011;2582;48.770;9.190;2022-10-22T13:51:41;1.80;;;1.13;;
5127;SDS011;2582;48.770;9.190;2022-10-22T13:54:15;2.17;;;0.80;;
5127;SDS011;2582;48.770;9.190;2022-10-22T13:56:42;1.80;;;0.93;;
5127;SDS011;2582;48.770;9.190;2022-10-22T13:59:08;2.13;;;1.37;;
5127;SDS011;2582;48.770;9.190;2022-10-22T14:01:34;1.83;;;1.00;;
5127;SDS011;2582;48.770;9.190;2022-10-22T14:04:02;3.57;;;1.60;;
5127;SDS011;2582;48.770;9.190;2022-10-22T14:06:29;2.07;;;1.20;;
5127;SDS011;2582;48.770;9.190;2022-10-22T14:08:57;2.40;;;1.00;;
5127;SDS011;2582;48.770;9.190;2022-10-22T14:11:28;6.77;;;1.47;;
5127;SDS011;2582;48.770;9.190;2022-10-22T14:13:59;3.23;;;1.23;;
5127;SDS011;2582;48.770;9.190;2022-10-22T14:16:27;3.97;;;1.60;;
5127;SDS011;2582;48.770;9.190;2022-10-22T14:18:56;7.47;;;1.90;;
5127;SDS011;2582;48.770;9.190;2022-10-22T14:21:22;6.07;;;1.57;;
5127;SDS011;2582;48.770;9.190;2022-10-22T14:23:48;3.50;;;1.57;;
5127;SDS011;2582;48.770;9.190;2022-10-22T14:26:25;5.50;;;1.33;;
5127;SDS011;2582;48.770;9.190;2022-10-22T14:28:55;3.10;;;1.20;;
5127;SDS011;2582;48.770;9.190;2022-10-22T14:31:21;3.57;;;1.43;;
5127;SDS011;2582;48.770;9.190;2022-10-22T14:33:47;11.20;;;1.70;;
5127;SDS011;2582;48.770;9.190;2022-10-22T14:36:14;3.30;;;1.60;;
5127;SDS011;2582;48.770;9.190;2022-10-22T14:38:46;5.43;;;1.57;;
5127;SDS011;2582;48.770;9.190;2022-10-22T14:41:20;5.03;;;1.60;;
5127;SDS011;2582;48.770;9.190;2022-10-22T14:43:51;7.60;;;1.60;;
5127;SDS011;2582;48.770;9.190;2022-10-22T14:46:18;7.30;;;2.17;;
5127;SDS011;2582;48.770;9.190;2022-10-22T14:48:44;7.50;;;2.70;;
5127;SDS011;2582;48.770;9.190;2022-10-22T14:51:13;4.07;;;2.00;;
5127;SDS011;2582;48.770;9.190;2022-10-22T14:53:41;3.03;;;1.13;;
5127;SDS011;2582;48.770;9.190;2022-10-22T14:56:10;2.90;;;1.63;;
5127;SDS011;2582;48.770;9.190;2022-10-22T14:58:37;6.50;;;1.77;;
5127;SDS011;2582;48.770;9.190;2022-10-22T15:01:03;6.33;;;1.60;;
5127;SDS011;2582;48.770;9.190;2022-10-22T15:03:29;11.33;;;1.50;;
5127;SDS011;2582;48.770;9.190;2022-10-22T15:05:55;3.00;;;1.30;;
5127;SDS011;2582;48.770;9.190;2022-10-22T15:08:22;4.73;;;1.70;;
5127;SDS011;2582;48.770;9.190;2022-10-22T15:11:08;4.70;;;1.63;;
5127;SDS011;2582;48.770;9.190;2022-10-22T15:13:35;7.50;;;2.13;;
5127;SDS011;2582;48.770;9.190;2022-10-22T15:16:04;5.83;;;2.40;;
5127;SDS011;2582;48.770;9.190;2022-10-22T15:18:30;4.30;;;1.67;;
5127;SDS011;2582;48.770;9.190;2022-10-22T15:20:57;5.50;;;1.87;;
5127;SDS011;2582;48.770;9.190;2022-10-22T15:23:24;4.97;;;1.73;;
5127;SDS011;2582;48.770;9.190;2022-10-22T15:25:50;6.33;;;1.77;;
5127;SDS011;2582;48.770;9.190;2022-10-22T15:28:16;10.03;;;2.20;;
5127;SDS011;2582;48.770;9.190;2022-10-22T15:30:41;7.03;;;1.80;;
5127;SDS011;2582;48.770;9.190;2022-10-22T15:33:07;4.83;;;2.03;;
5127;SDS011;2582;48.770;9.190;2022-10-22T15:35:33;3.87;;;2.20;;
5127;SDS011;2582;48.770;9.190;2022-10-22T15:37:58;7.73;;;2.10;;
5127;SDS011;2582;48.770;9.190;2022-10-22T15:40:24;5.10;;;2.00;;
5127;SDS011;2582;48.770;9.190;2022-10-22T15:42:49;8.57;;;1.63;;
5127;SDS011;2582;48.770;9.190;2022-10-22T15:45:15;2.63;;;1.50;;
5127;SDS011;2582;48.770;9.190;2022-10-22T15:47:44;7.13;;;2.37;;
5127;SDS011;2582;48.770;9.190;2022-10-22T15:50:10;8.23;;;2.10;;
5127;SDS011;2582;48.770;9.190;2022-10-22T15:52:35;6.37;;;1.90;;
5127;SDS011;2582;48.770;9.190;2022-10-22T15:55:01;3.53;;;1.43;;
5127;SDS011;2582;48.770;9.190;2022-10-22T15:57:34;7.33;;;1.80;;
5127;SDS011;2582;48.770;9.190;2022-10-22T16:00:00;3.00;;;1.37;;
5127;SDS011;2582;48.770;9.190;2022-10-22T16:02:25;3.03;;;1.60;;
5127;SDS011;2582;48.770;9.190;2022-10-22T16:04:51;5.13;;;2.13;;
5127;SDS011;2582;48.770;9.190;2022-10-22T16:07:17;5.97;;;2.27;;
5127;SDS011;2582;48.770;9.190;2022-10-22T16:09:42;7.23;;;2.30;;
5127;SDS011;2582;48.770;9.190;2022-10-22T16:12:08;3.60;;;2.07;;
5127;SDS011;2582;48.770;9.190;2022-10-22T16:14:33;5.63;;;1.90;;
5127;SDS011;2582;48.770;9.190;2022-10-22T16:16:59;5.60;;;2.10;;
5127;SDS011;2582;48.770;9.190;2022-10-22T16:19:25;5.07;;;2.27;;
5127;SDS011;2582;48.770;9.190;2022-10-22T16:21:52;3.80;;;1.57;;
5127;SDS011;2582;48.770;9.190;2022-10-22T16:24:20;7.10;;;1.93;;
5127;SDS011;2582;48.770;9.190;2022-10-22T16:26:46;3.07;;;1.47;;
5127;SDS011;2582;48.770;9.190;2022-10-22T16:29:12;5.67;;;1.67;;
5127;SDS011;2582;48.770;9.190;2022-10-22T16:31:39;6.47;;;2.03;;
5127;SDS011;2582;48.770;9.190;2022-10-22T16:34:07;4.17;;;2.67;;
5127;SDS011;2582;48.770;9.190;2022-10-22T16:36:33;7.80;;;2.73;;
5127;SDS011;2582;48.770;9.190;2022-10-22T16:39:00;15.13;;;3.57;;
5127;SDS011;2582;48.770;9.190;2022-10-22T16:41:26;6.67;;;2.93;;
5127;SDS011;2582;48.770;9.190;2022-10-22T16:43:58;5.23;;;2.20;;
5127;SDS011;2582;48.770;9.190;2022-10-22T16:46:26;3.60;;;2.17;;
5127;SDS011;2582;48.770;9.190;2022-10-22T16:48:52;6.77;;;1.87;;
5127;SDS011;2582;48.770;9.190;2022-10-22T16:51:22;5.77;;;2.10;;
5127;SDS011;2582;48.770;9.190;2022-10-22T16:53:52;6.60;;;2.20;;
5127;SDS011;2582;48.770;9.190;2022-10-22T16:56:19;5.50;;;2.10;;
5127;SDS011;2582;48.770;9.190;2022-10-22T16:58:46;2.20;;;2.00;;
5127;SDS011;2582;48.770;9.190;2022-10-22T17:01:18;3.47;;;1.87;;
5127;SDS011;2582;48.770;9.190;2022-10-22T17:03:44;5.80;;;2.07;;
5127;SDS011;2582;48.770;9.190;2022-10-22T17:06:10;5.23;;;2.00;;
5127;SDS011;2582;48.770;9.190;2022-10-22T17:08:36;3.87;;;2.00;;